Time;durP1;ratioP1;P1;durP2;ratioP2;P2;SDS_P1;SDS_P2;PMS_P1;PMS_P2;Temp;Humidity;BMP_temperature;BMP_pressure;BME280_temperature;BME280_humidity;BME280_pressure;Samples;Min_cycle;Max_cycle;Signal;HPM_P1;HPM_P2
2023/03/29 06:02:25;;;;;;;10.45;4.90;;;6.50;99.90;;;;;;5013138;28;20044;-85
2023/03/29 06:04:51;;;;;;;10.75;5.00;;;6.50;99.90;;;;;;4999991;28;20039;-82
2023/03/29 06:07:17;;;;;;;9.10;4.95;;;6.50;99.90;;;;;;4972502;28;20031;-83
2023/03/29 06:09:44;;;;;;;7.45;4.50;;;;;;;;;;4969806;28;20027;-81
2023/03/29 06:12:11;;;;;;;11.80;4.95;;;6.60;99.90;;;;;;4987272;28;20029;-83
2023/03/29 06:14:36;;;;;;;10.70;5.00;;;7.40;99.90;;;;;;4978832;28;20027;-79
2023/03/29 06:17:02;;;;;;;9.75;4.70;;;6.70;99.90;;;;;;4981807;28;20054;-83
2023/03/29 06:19:28;;;;;;;7.03;4.57;;;;;;;;;;4984339;28;20058;-84
2023/03/29 06:21:54;;;;;;;21.60;5.63;;;6.70;99.90;;;;;;4980976;28;20497;-84
2023/03/29 06:24:20;;;;;;;8.02;4.97;;;6.70;99.90;;;;;;4980668;28;20031;-85
2023/03/29 06:26:45;;;;;;;15.25;4.57;;;6.80;99.90;;;;;;4980490;28;20062;-81
2023/03/29 06:29:11;;;;;;;10.73;4.32;;;7.90;99.90;;;;;;4978883;28;20026;-85
2023/03/29 06:31:37;;;;;;;10.50;5.38;;;7.40;99.90;;;;;;4982283;28;20031;-82
2023/03/29 06:34:03;;;;;;;17.02;5.70;;;8.20;99.90;;;;;;4979080;28;20023;-81
2023/03/29 06:36:29;;;;;;;17.25;6.07;;;7.00;99.90;;;;;;4980701;28;20030;-84
2023/03/29 06:38:55;;;;;;;14.65;4.97;;;7.00;99.90;;;;;;4980417;28;20031;-85
2023/03/29 06:41:22;;;;;;;11.23;5.13;;;;;;;;;;4985427;28;20027;-86
2023/03/29 06:43:48;;;;;;;12.25;5.40;;;7.20;99.90;;;;;;4980772;28;20030;-82
2023/03/29 06:46:16;;;;;;;8.88;4.25;;;7.70;99.90;;;;;;4981305;28;20031;-83
2023/03/29 06:48:41;;;;;;;10.60;4.85;;;7.30;99.90;;;;;;4979139;28;20039;-84
2023/03/29 06:51:07;;;;;;;10.27;5.03;;;8.60;99.90;;;;;;4979702;28;20034;-82
2023/03/29 06:53:36;;;;;;;12.50;4.68;;;7.40;99.90;;;;;;4980179;28;20089;-82
2023/03/29 06:56:07;;;;;;;11.35;6.53;;;7.40;99.90;;;;;;4981612;28;20085;-82
2023/03/29 06:58:34;;;;;;;12.48;5.53;;;7.50;99.90;;;;;;4980444;28;20026;-87
2023/03/29 07:01:01;;;;;;;11.57;5.22;;;7.60;99.90;;;;;;4980524;28;20037;-82
2023/03/29 07:03:26;;;;;;;14.43;5.22;;;7.60;99.90;;;;;;4980011;28;20470;-85
2023/03/29 07:06:00;;;;;;;16.73;5.60;;;;;;;;;;4980425;28;20050;-81
2023/03/29 07:08:30;;;;;;;11.05;5.53;;;7.60;99.90;;;;;;4986725;28;20034;-87
2023/03/29 07:10:57;;;;;;;11.13;5.18;;;8.50;99.90;;;;;;4994123;28;20522;-83
2023/03/29 07:13:23;;;;;;;13.30;5.50;;;8.20;99.90;;;;;;4981617;28;20030;-81
2023/03/29 07:15:49;;;;;;;10.65;4.97;;;7.80;99.90;;;;;;4981486;28;20027;-81
2023/03/29 07:18:17;;;;;;;15.35;6.10;;;;;;;;;;4981710;28;20035;-86
2023/03/29 07:20:43;;;;;;;17.77;6.13;;;7.90;99.90;;;;;;4984332;28;20038;-82
2023/03/29 07:23:10;;;;;;;15.55;5.95;;;8.20;99.90;;;;;;4969357;28;20114;-84
2023/03/29 07:25:37;;;;;;;17.08;7.32;;;8.70;99.90;;;;;;4979546;28;20023;-85
2023/03/29 07:28:03;;;;;;;22.77;5.90;;;9.00;99.90;;;;;;4981991;28;20101;-86
2023/03/29 07:30:29;;;;;;;22.20;6.20;;;8.50;99.90;;;;;;4978606;28;20058;-86
2023/03/29 07:32:57;;;;;;;11.30;4.82;;;;;;;;;;4980485;28;20030;-84
2023/03/29 07:35:24;;;;;;;13.52;4.45;;;10.20;99.90;;;;;;4993200;28;20031;-87
2023/03/29 07:37:49;;;;;;;12.07;4.03;;;9.10;99.90;;;;;;4979963;28;20066;-86
2023/03/29 07:40:17;;;;;;;9.43;3.58;;;9.00;99.90;;;;;;4979879;28;20027;-85
2023/03/29 07:42:47;;;;;;;7.78;4.00;;;9.00;99.90;;;;;;4979040;28;20026;-83
2023/03/29 07:45:15;;;;;;;7.95;3.75;;;10.00;99.90;;;;;;4979968;28;20090;-85
2023/03/29 07:47:42;;;;;;;7.57;3.90;;;9.20;99.90;;;;;;4980484;28;20030;-87
2023/03/29 07:50:08;;;;;;;8.02;3.70;;;9.40;99.90;;;;;;4977627;28;20092;-85
2023/03/29 07:52:35;;;;;;;5.60;3.55;;;9.50;99.90;;;;;;4979641;28;20462;-83
2023/03/29 07:55:01;;;;;;;10.88;3.92;;;9.60;99.90;;;;;;4981062;28;20118;-83
2023/03/29 07:57:27;;;;;;;7.82;3.80;;;;;;;;;;4979018;28;20124;-80
2023/03/29 07:59:53;;;;;;;7.22;3.88;;;9.90;99.90;;;;;;4971264;28;20018;-83
2023/03/29 08:02:22;;;;;;;10.60;4.15;;;9.90;99.90;;;;;;4979440;28;20046;-82
2023/03/29 08:04:48;;;;;;;9.95;4.07;;;10.00;99.90;;;;;;4982554;28;20031;-84
2023/03/29 08:07:15;;;;;;;10.45;3.80;;;10.10;99.90;;;;;;4994923;28;20061;-86
2023/03/29 08:09:42;;;;;;;8.27;3.92;;;10.20;99.90;;;;;;4980657;28;20094;-85
2023/03/29 08:12:08;;;;;;;8.02;3.72;;;10.30;99.90;;;;;;4980922;28;20030;-82
2023/03/29 08:14:34;;;;;;;8.52;3.90;;;10.30;99.90;;;;;;4983390;28;20118;-83
2023/03/29 08:17:00;;;;;;;9.13;3.40;;;10.60;99.90;;;;;;4980777;28;20026;-86
2023/03/29 08:19:26;;;;;;;7.10;3.35;;;;;;;;;;4975296;28;20034;-84
2023/03/29 08:21:52;;;;;;;6.50;3.47;;;10.40;99.90;;;;;;4990730;28;20027;-84
2023/03/29 08:24:18;;;;;;;8.27;3.70;;;10.40;99.90;;;;;;4991770;28;20062;-84
2023/03/29 08:26:44;;;;;;;6.53;3.50;;;;;;;;;;4977770;28;20498;-82
2023/03/29 08:29:10;;;;;;;7.07;3.28;;;10.50;99.90;;;;;;4990090;28;20483;-86
2023/03/29 08:31:36;;;;;;;7.53;3.67;;;9.90;99.90;;;;;;4971018;28;20125;-83
2023/03/29 08:34:03;;;;;;;6.35;3.03;;;;;;;;;;4972946;28;20102;-81
2023/03/29 08:36:28;;;;;;;6.50;3.17;;;10.80;99.90;;;;;;4975760;28;20491;-84
2023/03/29 08:38:54;;;;;;;8.88;3.38;;;11.20;99.90;;;;;;4977305;28;20033;-85
2023/03/29 08:41:48;;;;;;;5.80;2.53;;;10.90;99.90;;;;;;4978290;28;20125;-87
2023/03/29 08:44:58;;;;;;;7.55;3.28;;;11.10;99.90;;;;;;4973656;28;20034;-87
2023/03/29 08:47:34;;;;;;;6.25;3.13;;;11.20;99.90;;;;;;4943516;28;20140;-86
2023/03/29 08:50:01;;;;;;;6.35;3.13;;;11.20;99.90;;;;;;4979049;28;20031;-85
2023/03/29 08:52:27;;;;;;;9.43;3.20;;;;;;;;;;4979918;28;20042;-84
2023/03/29 08:54:56;;;;;;;8.15;2.90;;;11.30;99.90;;;;;;4977871;28;20034;-85
2023/03/29 08:57:26;;;;;;;7.80;3.33;;;11.30;99.90;;;;;;4983671;28;20041;-85
2023/03/29 08:59:58;;;;;;;6.32;3.10;;;11.50;99.90;;;;;;4999559;28;20034;-86
2023/03/29 09:02:26;;;;;;;5.57;3.10;;;11.50;99.90;;;;;;4980736;28;20495;-84
2023/03/29 09:04:58;;;;;;;7.10;3.10;;;;;;;;;;5170217;23;20047;-80
2023/03/29 09:07:31;;;;;;;5.93;3.20;;;;;;;;;;4998342;28;20037;-80
2023/03/29 09:10:06;;;;;;;6.25;2.80;;;12.00;99.90;;;;;;5013119;28;20046;-80
2023/03/29 09:12:42;;;;;;;7.22;2.92;;;;;;;;;;5005819;28;20022;-80
2023/03/29 09:15:18;;;;;;;5.60;3.00;;;;;;;;;;4999546;28;20370;-80
2023/03/29 09:18:22;;;;;;;4.45;3.00;;;12.20;99.90;;;;;;5001967;28;20022;-81
2023/03/29 09:21:02;;;;;;;6.20;2.78;;;12.20;99.90;;;;;;4986976;28;20022;-81
2023/03/29 09:24:08;;;;;;;6.97;3.50;;;12.20;99.90;;;;;;5005850;28;20421;-80
2023/03/29 09:26:44;;;;;;;7.05;3.08;;;12.10;99.90;;;;;;4928948;28;20445;-79
2023/03/29 09:29:44;;;;;;;5.57;2.95;;;12.10;99.90;;;;;;4990159;28;20052;-79
2023/03/29 09:32:26;;;;;;;6.80;3.20;;;12.10;99.90;;;;;;4965212;28;20034;-79
2023/03/29 09:35:21;;;;;;;8.10;3.17;;;12.10;99.90;;;;;;4999878;28;20045;-80
2023/03/29 09:38:11;;;;;;;5.15;2.97;;;12.20;99.90;;;;;;4995219;28;20084;-79
2023/03/29 09:41:23;;;;;;;9.15;3.40;;;12.30;99.90;;;;;;4985923;28;20023;-78
2023/03/29 09:44:04;;;;;;;7.07;3.10;;;;;;;;;;5004745;28;20022;-81
2023/03/29 09:46:42;;;;;;;6.43;3.30;;;;;;;;;;4986047;28;20022;-80
2023/03/29 09:49:21;;;;;;;6.68;3.53;;;;;;;;;;5001386;28;20030;-81
2023/03/29 09:51:58;;;;;;;6.72;3.03;;;;;;;;;;5009270;28;20046;-80
2023/03/29 09:54:56;;;;;;;6.70;3.25;;;12.90;99.90;;;;;;4993880;28;20080;-79
2023/03/29 09:57:24;;;;;;;5.85;2.97;;;;;;;;;;4978137;28;20042;-80
2023/03/29 09:59:53;;;;;;;5.10;3.03;;;13.00;99.90;;;;;;5005767;28;20041;-80
2023/03/29 10:02:58;;;;;;;5.75;2.78;;;13.00;99.90;;;;;;5007580;28;20049;-79
2023/03/29 10:05:37;;;;;;;6.05;3.15;;;;;;;;;;4995015;28;20022;-81
2023/03/29 10:08:53;;;;;;;5.75;3.20;;;13.00;99.90;;;;;;4983938;28;20030;-79
2023/03/29 10:11:20;;;;;;;4.88;2.53;;;;;;;;;;4914176;29;20108;-81
2023/03/29 10:14:01;;;;;;;7.03;3.58;;;13.30;99.90;;;;;;4925186;29;20052;-80
2023/03/29 10:16:40;;;;;;;8.35;3.40;;;13.50;99.90;;;;;;4914096;29;20431;-78
2023/03/29 10:19:38;;;;;;;6.18;3.00;;;13.70;99.90;;;;;;4938455;28;20038;-78
2023/03/29 10:22:26;;;;;;;4.78;2.60;;;13.70;99.90;;;;;;4994056;28;20033;-80
2023/03/29 10:25:19;;;;;;;8.50;2.97;;;13.80;99.90;;;;;;4982190;28;20102;-80
2023/03/29 10:28:05;;;;;;;6.45;2.97;;;13.90;99.90;;;;;;4987393;28;20062;-81
2023/03/29 10:31:08;;;;;;;5.20;2.70;;;14.10;99.90;;;;;;5029647;22;20054;-81
2023/03/29 10:33:51;;;;;;;8.15;3.15;;;;;;;;;;5006273;28;20026;-82
2023/03/29 10:36:17;;;;;;;5.30;2.72;;;;;;;;;;5024473;28;20034;-79
2023/03/29 10:38:50;;;;;;;6.30;2.60;;;14.40;99.90;;;;;;5025564;28;20030;-79
2023/03/29 10:41:21;;;;;;;7.28;3.20;;;14.30;99.90;;;;;;5005435;28;20022;-81
2023/03/29 10:43:50;;;;;;;5.30;2.88;;;14.30;99.90;;;;;;5020655;28;20089;-81
2023/03/29 10:46:27;;;;;;;5.30;2.47;;;14.30;99.90;;;;;;5011256;28;20034;-82
2023/03/29 10:49:09;;;;;;;6.97;2.92;;;14.30;99.90;;;;;;5006684;28;20036;-78
2023/03/29 10:51:43;;;;;;;8.63;3.05;;;14.30;99.90;;;;;;5003304;28;20072;-80
2023/03/29 10:54:25;;;;;;;5.72;3.10;;;14.40;99.90;;;;;;5012688;28;20038;-79
2023/03/29 10:57:09;;;;;;;5.15;2.90;;;14.40;99.90;;;;;;4985375;28;20030;-80
2023/03/29 10:59:59;;;;;;;8.32;2.60;;;14.50;99.90;;;;;;5006311;28;20058;-79
2023/03/29 11:05:45;;;;;;;6.03;2.93;;;;;;;;;;5021653;28;20044;-80
2023/03/29 11:09:07;;;;;;;6.75;2.70;;;14.70;99.90;;;;;;5030115;28;20069;-81
2023/03/29 11:11:55;;;;;;;8.35;3.20;;;;;;;;;;5074524;23;20058;-80
2023/03/29 11:14:31;;;;;;;7.05;2.65;;;14.80;99.90;;;;;;5019816;28;20026;-80
2023/03/29 11:17:26;;;;;;;5.93;2.60;;;;;;;;;;5033672;28;20085;-81
2023/03/29 11:19:57;;;;;;;4.18;2.03;;;;;;;;;;5006580;28;20030;-81
2023/03/29 11:23:15;;;;;;;8.05;2.67;;;15.10;99.90;;;;;;5030134;28;20018;-80
2023/03/29 11:26:13;;;;;;;5.10;2.40;;;;;;;;;;5020160;28;20109;-81
2023/03/29 11:31:52;;;;;;;8.63;3.03;;;;;;;;;;5024115;28;20069;-81
2023/03/29 11:35:12;;;;;;;6.55;3.30;;;15.50;99.90;;;;;;5016202;28;20030;-80
2023/03/29 11:38:11;;;;;;;4.43;1.90;;;15.50;99.90;;;;;;4942834;28;20063;-79
2023/03/29 11:40:48;;;;;;;4.93;1.67;;;15.40;99.90;;;;;;4987944;28;20018;-79
2023/03/29 11:43:25;;;;;;;6.80;1.80;;;;;;;;;;5024543;28;20017;-79
2023/03/29 11:46:34;;;;;;;5.28;1.77;;;14.90;99.90;;;;;;5013729;28;20060;-81
2023/03/29 11:49:14;;;;;;;5.68;2.33;;;14.90;99.90;;;;;;5020059;28;20050;-79
2023/03/29 11:51:54;;;;;;;5.47;2.00;;;14.90;99.90;;;;;;5014259;28;20060;-78
2023/03/29 11:54:50;;;;;;;5.72;1.90;;;;;;;;;;5018598;28;20106;-80
2023/03/29 11:57:48;;;;;;;4.28;2.10;;;14.60;99.90;;;;;;5034096;28;20105;-79
2023/03/29 12:00:56;;;;;;;3.63;1.83;;;14.50;99.90;;;;;;5165201;22;20082;-81
2023/03/29 12:04:05;;;;;;;;;;;14.40;99.90;;;;;;4998897;28;20038;-79
2023/03/29 12:07:09;;;;;;;7.95;2.45;;;;;;;;;;4908660;29;19911;-80
2023/03/29 12:10:13;;;;;;;5.03;2.00;;;;;;;;;;4924018;29;20020;-82
2023/03/29 12:13:04;;;;;;;6.15;2.25;;;;;;;;;;4882969;29;20040;-82
2023/03/29 12:16:15;;;;;;;5.70;2.65;;;14.50;99.90;;;;;;4977580;28;20027;-81
2023/03/29 12:18:54;;;;;;;4.25;2.10;;;14.60;99.90;;;;;;4973516;28;20112;-81
2023/03/29 12:21:21;;;;;;;7.78;2.00;;;14.70;99.90;;;;;;4985666;28;20033;-81
2023/03/29 12:23:48;;;;;;;8.07;2.22;;;14.70;99.90;;;;;;4992693;28;20022;-81
2023/03/29 12:27:01;;;;;;;9.88;2.15;;;14.70;99.90;;;;;;4983432;28;20031;-79
2023/03/29 12:29:53;;;;;;;5.82;1.90;;;14.70;99.90;;;;;;5016584;28;20057;-81
2023/03/29 12:32:46;;;;;;;5.63;1.95;;;14.80;99.90;;;;;;4998177;28;20022;-79
2023/03/29 12:35:41;;;;;;;4.40;1.77;;;14.70;99.90;;;;;;4993091;28;20035;-79
2023/03/29 12:41:22;;;;;;;4.47;1.88;;;14.80;99.90;;;;;;4998177;28;20049;-82
2023/03/29 12:43:48;;;;;;;4.00;1.70;;;15.00;99.90;;;;;;4981287;28;20023;-80
2023/03/29 12:46:24;;;;;;;4.07;1.70;;;15.00;99.90;;;;;;4990013;28;20034;-81
2023/03/29 12:48:56;;;;;;;4.85;1.88;;;15.10;99.90;;;;;;4992412;28;20033;-82
2023/03/29 12:51:31;;;;;;;6.25;2.05;;;15.10;99.90;;;;;;4994422;28;20036;-80
2023/03/29 12:54:20;;;;;;;5.38;1.70;;;15.10;99.90;;;;;;4987850;28;20081;-82
2023/03/29 12:56:55;;;;;;;3.03;1.60;;;15.20;99.90;;;;;;5011255;28;20025;-82
2023/03/29 12:59:37;;;;;;;6.95;2.00;;;15.20;99.90;;;;;;5005170;28;20023;-79
2023/03/29 13:02:33;;;;;;;5.05;2.00;;;15.30;99.90;;;;;;4985310;28;20097;-81
2023/03/29 13:05:00;;;;;;;4.00;1.80;;;;;;;;;;5001376;28;20033;-81
2023/03/29 13:07:31;;;;;;;7.88;2.10;;;15.30;99.90;;;;;;4980575;28;20048;-80
2023/03/29 13:10:35;;;;;;;4.00;2.13;;;15.20;99.90;;;;;;4984024;28;20460;-79
2023/03/29 13:16:31;;;;;;;5.38;2.05;;;15.40;99.90;;;;;;4959058;28;20117;-81
2023/03/29 13:19:18;;;;;;;5.13;2.20;;;15.50;99.90;;;;;;4998588;28;20044;-81
2023/03/29 13:21:54;;;;;;;4.40;2.28;;;15.50;99.90;;;;;;4983074;28;20373;-81
2023/03/29 13:24:37;;;;;;;8.55;2.33;;;15.60;99.90;;;;;;4988366;28;20037;-82
2023/03/29 13:30:14;;;;;;;7.15;2.60;;;15.40;99.90;;;;;;5008665;28;20045;-81
2023/03/29 13:33:01;;;;;;;6.00;3.13;;;15.50;99.90;;;;;;4987206;28;20026;-80
2023/03/29 13:35:49;;;;;;;6.60;2.60;;;15.80;99.90;;;;;;5002212;28;20030;-83
2023/03/29 13:38:30;;;;;;;8.18;3.35;;;15.90;99.90;;;;;;5002937;28;20109;-82
2023/03/29 13:40:58;;;;;;;5.13;2.90;;;16.00;99.90;;;;;;4982245;28;20535;-83
2023/03/29 13:43:43;;;;;;;7.78;2.97;;;;;;;;;;4988588;28;20061;-82
2023/03/29 13:46:40;;;;;;;3.95;2.47;;;16.00;99.90;;;;;;4996607;28;20493;-82
2023/03/29 13:49:16;;;;;;;4.55;2.55;;;16.10;99.90;;;;;;4998493;28;20026;-82
2023/03/29 13:52:12;;;;;;;6.32;2.97;;;16.20;99.90;;;;;;4992886;28;20082;-82
2023/03/29 13:55:03;;;;;;;4.88;2.78;;;16.20;99.90;;;;;;4978495;28;20093;-81
2023/03/29 13:57:42;;;;;;;6.95;2.60;;;16.40;99.90;;;;;;4991002;28;20026;-80
2023/03/29 14:00:18;;;;;;;4.50;2.53;;;17.00;99.90;;;;;;5005759;28;20043;-79
2023/03/29 14:02:44;;;;;;;5.88;2.72;;;17.10;99.90;;;;;;4993934;28;20027;-80
2023/03/29 14:05:17;;;;;;;9.32;2.60;;;17.50;99.90;;;;;;5003498;28;20062;-84
2023/03/29 14:07:48;;;;;;;9.13;2.65;;;17.70;99.90;;;;;;4999928;28;20021;-84
2023/03/29 14:10:24;;;;;;;4.85;2.65;;;18.00;99.90;;;;;;5020721;28;20050;-81
2023/03/29 14:12:51;;;;;;;3.60;2.20;;;18.10;99.80;;;;;;5012377;28;20026;-81
2023/03/29 14:15:24;;;;;;;5.38;2.22;;;18.20;99.90;;;;;;4995028;28;20038;-81
2023/03/29 14:17:56;;;;;;;4.63;2.10;;;19.40;99.90;;;;;;4986233;28;20030;-81
2023/03/29 14:20:23;;;;;;;5.18;2.17;;;18.30;99.90;;;;;;4999157;28;20026;-80
2023/03/29 14:22:49;;;;;;;7.07;2.20;;;;;;;;;;4982977;28;20026;-82
2023/03/29 14:25:21;;;;;;;3.70;2.08;;;18.40;99.70;;;;;;4998196;28;20070;-79
2023/03/29 14:27:47;;;;;;;4.18;2.08;;;18.30;99.90;;;;;;4998737;28;20034;-79
2023/03/29 14:30:24;;;;;;;5.43;2.00;;;18.20;99.90;;;;;;4983853;28;20034;-80
2023/03/29 14:32:51;;;;;;;3.00;1.77;;;;;;;;;;4969721;28;20029;-78
2023/03/29 14:35:19;;;;;;;4.93;2.17;;;18.20;99.90;;;;;;4987801;28;20026;-81
2023/03/29 14:37:50;;;;;;;4.70;1.83;;;18.10;99.90;;;;;;4988490;28;20029;-84
2023/03/29 14:40:19;;;;;;;6.10;1.45;;;18.10;99.90;;;;;;4999734;28;20030;-83
2023/03/29 14:42:47;;;;;;;3.60;1.73;;;18.20;99.90;;;;;;4998037;28;20035;-80
2023/03/29 14:45:15;;;;;;;3.53;1.55;;;18.20;99.90;;;;;;4986857;28;20038;-82
2023/03/29 14:47:43;;;;;;;5.20;1.63;;;18.20;99.90;;;;;;5005192;28;20369;-83
2023/03/29 14:50:21;;;;;;;6.15;1.90;;;18.10;99.90;;;;;;4987140;28;20022;-83
2023/03/29 14:52:49;;;;;;;4.88;1.60;;;18.00;99.90;;;;;;5008809;28;20118;-82
2023/03/29 14:55:17;;;;;;;3.88;1.50;;;17.80;99.90;;;;;;5007483;28;20030;-81
2023/03/29 14:57:43;;;;;;;3.85;2.00;;;17.80;99.90;;;;;;4967686;28;20035;-81
2023/03/29 15:00:37;;;;;;;3.42;1.65;;;17.70;99.90;;;;;;4990693;28;20094;-86
2023/03/29 15:03:11;;;;;;;3.83;1.48;;;17.70;99.90;;;;;;5005481;28;20111;-86
2023/03/29 15:05:40;;;;;;;3.20;1.45;;;17.70;99.90;;;;;;5018443;28;20011;-87
2023/03/29 15:08:15;;;;;;;4.65;1.80;;;17.70;99.90;;;;;;4997784;28;20031;-86
2023/03/29 15:10:41;;;;;;;5.38;1.80;;;17.70;99.90;;;;;;4981655;28;20050;-81
2023/03/29 15:13:15;;;;;;;4.55;1.60;;;17.70;99.90;;;;;;4995921;28;20026;-82
2023/03/29 15:15:41;;;;;;;4.60;1.88;;;;;;;;;;5000367;28;20019;-79
2023/03/29 15:18:12;;;;;;;6.32;2.53;;;17.80;99.90;;;;;;5006396;28;20034;-81
2023/03/29 15:20:40;;;;;;;6.32;2.10;;;17.80;99.90;;;;;;4964662;28;20030;-80
2023/03/29 15:23:17;;;;;;;5.95;1.88;;;17.90;99.90;;;;;;4995326;28;20046;-80
2023/03/29 15:25:51;;;;;;;7.88;1.83;;;17.90;99.90;;;;;;4994892;28;20030;-82
2023/03/29 15:28:32;;;;;;;9.10;3.88;;;17.80;99.90;;;;;;4985523;28;20125;-80
2023/03/29 15:31:11;;;;;;;4.65;1.60;;;17.80;99.30;;;;;;4976505;28;20035;-81
2023/03/29 15:33:41;;;;;;;6.88;1.67;;;17.70;99.10;;;;;;4999099;28;20018;-80
2023/03/29 15:36:19;;;;;;;4.50;2.15;;;17.70;99.00;;;;;;5001800;23;20054;-84
2023/03/29 15:38:48;;;;;;;2.45;1.30;;;17.60;99.10;;;;;;5021419;28;20037;-85
2023/03/29 15:41:17;;;;;;;3.25;1.48;;;17.60;98.70;;;;;;5010219;28;20128;-84
2023/03/29 15:43:43;;;;;;;3.20;1.80;;;;;;;;;;4990312;28;20019;-86
2023/03/29 15:46:12;;;;;;;5.85;1.58;;;;;;;;;;5003156;28;20022;-84
2023/03/29 15:48:39;;;;;;;3.43;2.00;;;;;;;;;;4987961;28;20038;-83
2023/03/29 15:51:05;;;;;;;3.13;1.60;;;17.70;98.30;;;;;;5005373;28;20410;-83
2023/03/29 15:53:31;;;;;;;4.00;1.80;;;;;;;;;;5004023;28;20026;-81
2023/03/29 15:56:04;;;;;;;6.13;1.73;;;17.80;97.70;;;;;;5020210;28;20058;-83
2023/03/29 15:58:31;;;;;;;5.68;1.75;;;17.80;97.40;;;;;;5004867;28;20034;-85
2023/03/29 16:01:22;;;;;;;3.22;1.40;;;17.90;97.30;;;;;;4998227;28;20038;-83
2023/03/29 16:03:48;;;;;;;3.70;1.40;;;;;;;;;;4987505;28;20026;-85
2023/03/29 16:06:15;;;;;;;4.00;1.60;;;;;;;;;;4989398;28;20086;-86
2023/03/29 16:08:41;;;;;;;4.25;1.88;;;;;;;;;;5005979;28;20023;-82
2023/03/29 16:11:07;;;;;;;5.22;2.05;;;;;;;;;;4989503;28;20122;-83
2023/03/29 16:13:34;;;;;;;5.40;1.92;;;;;;;;;;5014557;28;20038;-84
2023/03/29 16:16:00;;;;;;;5.18;1.90;;;;;;;;;;5018802;28;20057;-84
2023/03/29 16:18:26;;;;;;;5.25;1.95;;;;;;;;;;4989670;28;20035;-81
2023/03/29 16:20:52;;;;;;;4.40;2.13;;;;;;;;;;4989146;28;20107;-84
2023/03/29 16:23:18;;;;;;;5.45;2.15;;;;;;;;;;5021088;28;20027;-83
2023/03/29 16:25:44;;;;;;;4.28;1.80;;;17.60;97.90;;;;;;5021030;28;20031;-85
2023/03/29 16:28:09;;;;;;;4.80;2.00;;;17.50;98.00;;;;;;4988873;28;20076;-85
2023/03/29 16:30:37;;;;;;;5.13;1.90;;;17.40;98.20;;;;;;4988503;28;20038;-86
2023/03/29 16:33:06;;;;;;;5.13;1.83;;;17.40;98.20;;;;;;4988276;28;20027;-84
2023/03/29 16:35:34;;;;;;;5.65;1.58;;;17.30;98.50;;;;;;4991877;28;20054;-84
2023/03/29 16:38:00;;;;;;;3.15;1.52;;;;;;;;;;5005528;28;20034;-85
2023/03/29 16:40:26;;;;;;;5.13;2.15;;;;;;;;;;5013635;28;20026;-87
2023/03/29 16:42:53;;;;;;;4.07;1.67;;;;;;;;;;5010030;28;20045;-84
2023/03/29 16:45:19;;;;;;;7.55;1.92;;;;;;;;;;5009990;28;20114;-87
2023/03/29 16:47:45;;;;;;;5.82;1.85;;;;;;;;;;5010664;28;20023;-83
2023/03/29 16:50:14;;;;;;;4.50;1.75;;;17.10;99.00;;;;;;5013370;28;20026;-87
2023/03/29 16:52:41;;;;;;;5.25;2.00;;;;;;;;;;5013971;28;20031;-85
2023/03/29 16:55:10;;;;;;;6.60;1.90;;;17.10;99.40;;;;;;5010697;28;20031;-83
2023/03/29 16:57:36;;;;;;;4.38;1.90;;;17.00;99.60;;;;;;5006016;28;20115;-86
2023/03/29 17:00:05;;;;;;;6.40;2.08;;;17.00;99.80;;;;;;5007922;28;20045;-87
2023/03/29 17:02:30;;;;;;;3.50;1.90;;;16.90;99.70;;;;;;5008027;28;20061;-85
2023/03/29 17:04:56;;;;;;;4.65;1.58;;;;;;;;;;5007530;28;20030;-82
2023/03/29 17:07:22;;;;;;;6.20;1.98;;;;;;;;;;5012907;28;20026;-82
2023/03/29 17:09:53;;;;;;;3.22;1.60;;;16.90;99.90;;;;;;5020301;28;20088;-83
2023/03/29 17:12:20;;;;;;;3.83;2.25;;;16.90;99.90;;;;;;5020054;28;20029;-81
2023/03/29 17:14:46;;;;;;;4.35;1.80;;;16.80;99.90;;;;;;5020214;28;20033;-82
2023/03/29 17:17:12;;;;;;;4.45;1.70;;;;;;;;;;5020169;28;20055;-82
2023/03/29 17:19:39;;;;;;;4.53;1.70;;;;;;;;;;5020287;28;20096;-87
2023/03/29 17:22:05;;;;;;;3.28;1.90;;;16.70;99.90;;;;;;5020499;28;20030;-83
2023/03/29 17:24:31;;;;;;;4.50;2.00;;;;;;;;;;5020003;28;20359;-82
2023/03/29 17:26:57;;;;;;;3.58;1.80;;;;;;;;;;5018992;28;20049;-82
2023/03/29 17:29:23;;;;;;;6.35;1.70;;;;;;;;;;5002383;28;20544;-80
2023/03/29 17:31:49;;;;;;;3.83;1.60;;;;;;;;;;5001684;28;20553;-83
2023/03/29 17:34:17;;;;;;;7.85;3.40;;;16.90;99.90;;;;;;5001756;28;20085;-86
2023/03/29 17:36:44;;;;;;;3.80;2.10;;;16.50;99.90;;;;;;5006440;28;20057;-83
2023/03/29 17:39:14;;;;;;;10.23;7.30;;;16.60;99.90;;;;;;5004159;28;20033;-85
2023/03/29 17:41:40;;;;;;;7.15;3.00;;;;;;;;;;5004218;28;20026;-81
2023/03/29 17:44:07;;;;;;;13.77;4.38;;;;;;;;;;5021973;28;20033;-85
2023/03/29 17:46:32;;;;;;;7.40;3.10;;;16.50;99.90;;;;;;5023384;28;20038;-87
2023/03/29 17:48:59;;;;;;;4.07;2.28;;;;;;;;;;5008422;28;20045;-85
2023/03/29 17:51:26;;;;;;;11.30;6.22;;;16.30;99.90;;;;;;5023689;28;20034;-86
2023/03/29 17:53:53;;;;;;;7.22;3.13;;;;;;;;;;5011003;28;20017;-83
2023/03/29 17:56:19;;;;;;;7.28;2.20;;;16.30;99.90;;;;;;5024778;28;20045;-84
2023/03/29 17:58:47;;;;;;;6.93;2.50;;;16.20;99.90;;;;;;5005326;28;20030;-84
2023/03/29 18:01:14;;;;;;;4.57;1.80;;;16.20;99.90;;;;;;5001187;28;20026;-86
2023/03/29 18:03:41;;;;;;;5.25;2.50;;;;;;;;;;5022997;28;20021;-84
2023/03/29 18:06:07;;;;;;;5.53;2.15;;;16.10;99.90;;;;;;5005714;28;20025;-84
2023/03/29 18:08:34;;;;;;;9.57;3.08;;;;;;;;;;5005326;28;20030;-85
2023/03/29 18:11:11;;;;;;;21.52;13.95;;;16.00;99.90;;;;;;5021615;28;20528;-82
2023/03/29 18:13:39;;;;;;;6.30;3.13;;;15.90;99.90;;;;;;5004896;28;20030;-86
2023/03/29 18:16:07;;;;;;;7.82;4.75;;;15.80;99.90;;;;;;5022628;28;20026;-88
2023/03/29 18:18:36;;;;;;;9.15;5.30;;;;;;;;;;5010491;28;20574;-88
2023/03/29 18:21:02;;;;;;;4.40;1.85;;;15.80;99.90;;;;;;5022068;28;20125;-85
2023/03/29 18:23:29;;;;;;;3.08;1.60;;;;;;;;;;5006215;28;20025;-86
2023/03/29 18:26:02;;;;;;;5.97;2.10;;;15.80;99.80;;;;;;5018749;28;20045;-86
2023/03/29 18:28:31;;;;;;;5.53;2.50;;;15.80;99.70;;;;;;5023037;28;20041;-86
2023/03/29 18:30:57;;;;;;;5.05;2.17;;;;;;;;;;5009642;28;20112;-86
2023/03/29 18:33:24;;;;;;;5.47;2.15;;;;;;;;;;5014197;28;20014;-88
2023/03/29 18:35:51;;;;;;;5.40;1.88;;;;;;;;;;5018229;28;20038;-88
2023/03/29 18:38:19;;;;;;;7.25;2.28;;;15.80;99.50;;;;;;5029090;28;20042;-87
2023/03/29 18:40:52;;;;;;;5.68;2.28;;;15.90;99.90;;;;;;5014974;28;20032;-89
2023/03/29 18:43:18;;;;;;;5.95;2.20;;;;;;;;;;5015817;28;20042;-87
2023/03/29 18:45:46;;;;;;;3.75;1.73;;;;;;;;;;5035845;28;20030;-86
2023/03/29 18:48:12;;;;;;;5.50;2.33;;;;;;;;;;5024834;28;20021;-87
2023/03/29 18:50:38;;;;;;;6.20;2.22;;;;;;;;;;5016992;28;20088;-87
2023/03/29 18:53:04;;;;;;;5.53;2.50;;;;;;;;;;5014550;28;20029;-86
2023/03/29 18:55:30;;;;;;;4.32;2.03;;;15.40;99.90;;;;;;5030930;28;20013;-85
2023/03/29 18:57:56;;;;;;;5.05;2.50;;;15.30;99.90;;;;;;5015720;28;20026;-88
2023/03/29 19:00:22;;;;;;;6.25;1.70;;;15.40;99.90;;;;;;5023596;28;20045;-86
2023/03/29 19:02:48;;;;;;;5.47;2.15;;;;;;;;;;5024852;28;20028;-86
2023/03/29 19:05:14;;;;;;;7.18;2.28;;;;;;;;;;5029585;28;20022;-87
2023/03/29 19:07:40;;;;;;;8.77;2.38;;;;;;;;;;5033419;28;20017;-87
2023/03/29 19:10:07;;;;;;;5.70;2.42;;;15.30;99.90;;;;;;5031963;28;20025;-85
2023/03/29 19:12:33;;;;;;;6.68;3.13;;;15.20;99.90;;;;;;5003778;28;20060;-86
2023/03/29 19:14:59;;;;;;;4.45;2.70;;;15.20;99.90;;;;;;5022685;28;20025;-84
2023/03/29 19:17:26;;;;;;;7.13;2.20;;;;;;;;;;5022361;28;20045;-83
2023/03/29 19:19:52;;;;;;;7.03;2.60;;;;;;;;;;5011921;28;20040;-86
2023/03/29 19:22:18;;;;;;;11.98;2.60;;;;;;;;;;5003807;28;20049;-85
2023/03/29 19:24:44;;;;;;;5.15;2.00;;;15.10;99.90;;;;;;5019204;28;20465;-85
2023/03/29 19:27:10;;;;;;;6.63;2.28;;;;;;;;;;5010106;28;20029;-83
2023/03/29 19:29:37;;;;;;;9.77;2.33;;;;;;;;;;5014889;28;20033;-84
2023/03/29 19:32:02;;;;;;;5.80;1.90;;;15.00;99.90;;;;;;5023215;28;20018;-85
2023/03/29 19:34:31;;;;;;;6.22;2.47;;;14.90;99.90;;;;;;5007323;28;20022;-84
2023/03/29 19:36:59;;;;;;;6.63;2.92;;;;;;;;;;5002946;28;20036;-83
2023/03/29 19:39:26;;;;;;;6.82;2.40;;;14.90;99.90;;;;;;5018891;28;20026;-86
2023/03/29 19:41:55;;;;;;;5.35;2.08;;;14.90;99.90;;;;;;5007653;28;20052;-84
2023/03/29 19:44:24;;;;;;;5.47;2.13;;;14.90;99.90;;;;;;5006107;28;20033;-83
2023/03/29 19:46:50;;;;;;;5.18;2.20;;;;;;;;;;5021749;28;20386;-84
2023/03/29 19:49:16;;;;;;;7.43;2.10;;;;;;;;;;5021167;28;20022;-84
2023/03/29 19:51:43;;;;;;;7.60;2.03;;;;;;;;;;5005201;28;20061;-84
2023/03/29 19:54:10;;;;;;;6.85;2.00;;;14.80;99.90;;;;;;5021160;28;20026;-84
2023/03/29 19:56:36;;;;;;;4.75;2.28;;;14.80;99.90;;;;;;5023115;28;20026;-81
2023/03/29 19:59:02;;;;;;;4.03;2.10;;;14.80;99.90;;;;;;5026022;28;20038;-88
2023/03/29 20:01:31;;;;;;;6.43;2.55;;;;;;;;;;5004912;28;20359;-85
2023/03/29 20:03:57;;;;;;;7.40;2.50;;;14.70;99.90;;;;;;5007663;28;20029;-87
2023/03/29 20:06:22;;;;;;;6.95;2.22;;;14.70;99.90;;;;;;5008663;28;20030;-84
2023/03/29 20:08:48;;;;;;;5.95;2.65;;;;;;;;;;5002951;28;20034;-85